Time;durP1;ratioP1;P1;durP2;ratioP2;P2;SDS_P1;SDS_P2;PMS_P1;PMS_P2;Temp;Humidity;BMP_temperature;BMP_pressure;BME280_temperature;BME280_humidity;BME280_pressure;Samples;Min_cycle;Max_cycle;Signal;HPM_P1;HPM_P2
2022/03/21 00:02:16;;;;;;;32.60;17.33;;;5.90;99.90;;;;;;4915567;29;20499;-83
2022/03/21 00:04:41;;;;;;;33.77;17.67;;;6.00;99.90;;;;;;4898318;29;20123;-83
2022/03/21 00:07:07;;;;;;;30.73;16.80;;;6.00;99.90;;;;;;4899078;29;20056;-84
2022/03/21 00:09:32;;;;;;;32.87;17.50;;;6.00;99.90;;;;;;4915865;29;20080;-84
2022/03/21 00:11:58;;;;;;;32.90;17.43;;;5.90;99.90;;;;;;4915192;29;20392;-84
2022/03/21 00:14:24;;;;;;;35.00;18.33;;;5.90;99.90;;;;;;4898932;29;20419;-84
2022/03/21 00:16:49;;;;;;;34.13;17.83;;;5.90;99.90;;;;;;4919420;29;20108;-84
2022/03/21 00:19:15;;;;;;;35.93;18.67;;;5.90;99.90;;;;;;4918204;29;20036;-84
2022/03/21 00:21:40;;;;;;;34.87;17.77;;;5.90;99.90;;;;;;4919481;29;20059;-84
2022/03/21 00:24:06;;;;;;;33.83;17.60;;;5.90;99.90;;;;;;4919102;29;20059;-84
2022/03/21 00:26:32;;;;;;;33.50;17.77;;;5.90;99.90;;;;;;4900886;29;20079;-85
2022/03/21 00:28:57;;;;;;;31.27;17.10;;;5.90;99.90;;;;;;4902194;29;20143;-84
2022/03/21 00:31:23;;;;;;;32.00;17.23;;;5.90;99.90;;;;;;4901234;29;20144;-84
2022/03/21 00:33:49;;;;;;;30.80;17.47;;;5.90;99.90;;;;;;4918991;29;20044;-84
2022/03/21 00:36:15;;;;;;;32.93;17.37;;;5.90;99.90;;;;;;4918762;29;20044;-84
2022/03/21 00:38:43;;;;;;;29.90;16.00;;;5.90;99.90;;;;;;4918400;29;20444;-84
2022/03/21 00:41:09;;;;;;;30.83;16.70;;;5.90;99.90;;;;;;4918714;29;20054;-84
2022/03/21 00:43:35;;;;;;;31.97;16.23;;;5.80;99.90;;;;;;4918473;29;20051;-84
2022/03/21 00:46:01;;;;;;;33.23;16.97;;;5.80;99.90;;;;;;4917975;29;20037;-85
2022/03/21 00:48:28;;;;;;;32.80;17.23;;;5.80;99.90;;;;;;4918606;29;20096;-84
2022/03/21 00:50:56;;;;;;;35.50;18.20;;;5.90;99.90;;;;;;4918886;29;20052;-84
2022/03/21 00:53:21;;;;;;;35.17;17.07;;;5.80;99.90;;;;;;4900794;29;20480;-84
2022/03/21 00:55:48;;;;;;;33.30;17.80;;;5.80;99.90;;;;;;4918612;29;20080;-84
2022/03/21 00:58:14;;;;;;;37.03;17.67;;;5.80;99.90;;;;;;4901121;29;20084;-84
2022/03/21 01:00:40;;;;;;;34.80;17.23;;;5.80;99.90;;;;;;4917878;29;20079;-84
2022/03/21 01:03:06;;;;;;;36.50;19.53;;;5.70;99.90;;;;;;4901386;29;20468;-84
2022/03/21 01:05:32;;;;;;;34.33;17.73;;;5.70;99.90;;;;;;4901074;29;20063;-84
2022/03/21 01:07:58;;;;;;;35.30;17.13;;;5.70;99.90;;;;;;4900656;29;20078;-85
2022/03/21 01:10:26;;;;;;;36.33;18.47;;;5.70;99.90;;;;;;4900738;29;20052;-84
2022/03/21 01:12:53;;;;;;;36.77;18.97;;;5.70;99.90;;;;;;4901290;29;20067;-85
2022/03/21 01:15:20;;;;;;;32.57;17.60;;;5.70;99.90;;;;;;4900210;29;20059;-85
2022/03/21 01:17:47;;;;;;;34.00;18.33;;;5.70;99.90;;;;;;4901306;29;20075;-85
2022/03/21 01:20:14;;;;;;;33.33;18.60;;;5.70;99.90;;;;;;4900704;29;20055;-84
2022/03/21 01:22:40;;;;;;;35.33;18.47;;;5.70;99.90;;;;;;4917495;29;20403;-84
2022/03/21 01:25:07;;;;;;;35.43;17.77;;;5.60;99.90;;;;;;4917949;29;20040;-85
2022/03/21 01:27:35;;;;;;;35.60;17.57;;;5.70;99.90;;;;;;4917057;29;20100;-85
2022/03/21 01:30:04;;;;;;;34.73;17.37;;;5.60;99.90;;;;;;4900434;29;20116;-85
2022/03/21 01:32:29;;;;;;;35.73;18.60;;;5.60;99.90;;;;;;4900577;29;20059;-85
2022/03/21 01:34:55;;;;;;;34.07;17.50;;;5.60;99.90;;;;;;4917336;29;20048;-85
2022/03/21 01:37:21;;;;;;;33.27;17.53;;;5.60;99.90;;;;;;4917490;29;20188;-84
2022/03/21 01:39:47;;;;;;;33.87;17.63;;;5.60;99.90;;;;;;4900719;29;20052;-85
2022/03/21 01:42:12;;;;;;;31.23;17.10;;;5.60;99.90;;;;;;4916882;29;20047;-85
2022/03/21 01:44:38;;;;;;;35.43;16.73;;;5.60;99.90;;;;;;4917596;29;20056;-85
2022/03/21 01:47:04;;;;;;;30.23;16.00;;;5.60;99.90;;;;;;4900707;29;20380;-85
2022/03/21 01:49:29;;;;;;;30.70;16.10;;;5.60;99.90;;;;;;4899641;29;20051;-85
2022/03/21 01:51:55;;;;;;;32.47;16.17;;;5.60;99.90;;;;;;4917654;29;20051;-85
2022/03/21 01:57:05;;;;;;;30.45;15.50;;;5.60;99.90;;;;;;4899707;29;20052;-85
2022/03/21 01:59:32;;;;;;;30.17;15.93;;;5.60;99.90;;;;;;4917286;29;20075;-85
2022/03/21 02:01:58;;;;;;;29.17;15.17;;;5.60;99.90;;;;;;4917657;29;20134;-84
2022/03/21 02:04:24;;;;;;;30.50;15.70;;;5.60;99.90;;;;;;4899116;29;20142;-85
2022/03/21 02:06:49;;;;;;;29.07;15.40;;;5.60;99.90;;;;;;4900200;29;20048;-85
2022/03/21 02:09:15;;;;;;;32.17;17.33;;;5.60;99.90;;;;;;4917016;29;20036;-85
2022/03/21 02:11:42;;;;;;;33.33;15.87;;;5.60;99.90;;;;;;4899151;29;20077;-85
2022/03/21 02:14:09;;;;;;;32.17;16.87;;;5.60;99.90;;;;;;4899869;29;20095;-85
2022/03/21 02:16:36;;;;;;;29.90;16.20;;;5.60;99.90;;;;;;4916636;29;20056;-85
2022/03/21 02:19:15;;;;;;;29.93;16.20;;;5.60;99.90;;;;;;4899352;29;20106;-86
2022/03/21 02:21:47;;;;;;;31.07;16.43;;;5.60;99.90;;;;;;4900329;29;20385;-85
2022/03/21 02:24:54;;;;;;;32.30;16.67;;;5.60;99.90;;;;;;4915836;29;20877;-85
2022/03/21 02:27:21;;;;;;;34.17;15.87;;;5.60;99.90;;;;;;4868481;29;20404;-85
2022/03/21 02:29:51;;;;;;;30.97;16.53;;;5.60;99.90;;;;;;4917034;29;20062;-85
2022/03/21 02:32:16;;;;;;;29.33;15.93;;;5.60;99.90;;;;;;4898537;29;20131;-85
2022/03/21 02:34:42;;;;;;;33.97;16.43;;;5.60;99.90;;;;;;4916779;29;20449;-85
2022/03/21 02:37:12;;;;;;;33.30;16.30;;;5.60;99.90;;;;;;4916420;29;20044;-85
2022/03/21 02:39:39;;;;;;;29.93;16.67;;;5.60;99.90;;;;;;4916048;29;20044;-85
2022/03/21 02:42:05;;;;;;;31.60;17.37;;;5.50;99.90;;;;;;4899639;29;20154;-85
2022/03/21 02:44:36;;;;;;;32.47;17.50;;;5.50;99.90;;;;;;4916163;29;20503;-85
2022/03/21 02:47:03;;;;;;;31.53;17.00;;;5.50;99.90;;;;;;4915777;29;20048;-85
2022/03/21 02:49:28;;;;;;;31.83;16.40;;;5.50;99.90;;;;;;4899351;29;20040;-85
2022/03/21 02:51:56;;;;;;;33.13;17.20;;;5.40;99.90;;;;;;4916816;29;20055;-85
2022/03/21 02:54:22;;;;;;;34.67;16.57;;;5.30;99.90;;;;;;4898397;29;20106;-85
2022/03/21 02:56:48;;;;;;;31.73;17.20;;;5.30;99.90;;;;;;4915013;29;20059;-85
2022/03/21 02:59:16;;;;;;;30.70;16.10;;;5.30;99.90;;;;;;4898614;29;20076;-84
2022/03/21 03:01:42;;;;;;;30.37;16.43;;;5.20;99.90;;;;;;4898616;29;20056;-84
2022/03/21 03:04:08;;;;;;;33.10;17.03;;;5.20;99.90;;;;;;4916134;29;20040;-84
2022/03/21 03:06:34;;;;;;;35.03;16.93;;;5.20;99.90;;;;;;4914738;29;20067;-85
2022/03/21 03:09:00;;;;;;;33.03;16.90;;;5.10;99.90;;;;;;4916045;29;20048;-84
2022/03/21 03:11:25;;;;;;;29.50;16.80;;;5.00;99.90;;;;;;4915966;29;20377;-84
2022/03/21 03:13:51;;;;;;;32.83;16.67;;;5.00;99.90;;;;;;4898532;29;20052;-84
2022/03/21 03:16:17;;;;;;;29.97;16.73;;;5.00;99.90;;;;;;4916102;29;20040;-84
2022/03/21 03:18:44;;;;;;;32.37;16.50;;;4.90;99.90;;;;;;4899435;29;20044;-85
2022/03/21 03:21:10;;;;;;;36.03;17.10;;;4.90;99.90;;;;;;4915928;29;20059;-85
2022/03/21 03:23:38;;;;;;;35.90;17.07;;;4.80;99.90;;;;;;4916451;29;20080;-85
2022/03/21 03:26:04;;;;;;;33.00;16.33;;;4.70;99.90;;;;;;4899564;29;20056;-84
2022/03/21 03:28:31;;;;;;;31.90;16.23;;;4.60;99.90;;;;;;4898403;29;20071;-84
2022/03/21 03:30:58;;;;;;;31.93;16.63;;;4.50;99.90;;;;;;4916156;29;20056;-84
2022/03/21 03:33:24;;;;;;;38.53;17.30;;;4.40;99.90;;;;;;4915831;29;20448;-84
2022/03/21 03:35:50;;;;;;;33.50;16.43;;;4.30;99.90;;;;;;4915450;29;20514;-84
2022/03/21 03:38:16;;;;;;;37.63;18.53;;;4.20;99.90;;;;;;4899091;29;20036;-84
2022/03/21 03:40:43;;;;;;;37.37;17.67;;;4.10;99.90;;;;;;4916144;29;20052;-84
2022/03/21 03:43:10;;;;;;;34.17;16.77;;;4.00;99.90;;;;;;4898220;29;20403;-84
2022/03/21 03:45:36;;;;;;;37.13;17.47;;;4.20;99.90;;;;;;4916250;29;20044;-84
2022/03/21 03:48:03;;;;;;;35.63;16.40;;;3.90;99.90;;;;;;4899261;29;20103;-84
2022/03/21 03:50:28;;;;;;;33.33;16.57;;;3.90;99.90;;;;;;4900016;29;20048;-84
2022/03/21 03:52:54;;;;;;;31.53;15.93;;;3.80;99.90;;;;;;4902807;29;20048;-84
2022/03/21 03:55:20;;;;;;;36.90;16.80;;;3.70;99.90;;;;;;4919111;29;20429;-84
2022/03/21 03:57:47;;;;;;;38.10;17.60;;;3.70;99.90;;;;;;4902426;29;20123;-84
2022/03/21 04:00:15;;;;;;;38.93;17.93;;;3.60;99.90;;;;;;4919203;29;20051;-84
2022/03/21 04:05:26;;;;;;;40.83;17.77;;;3.40;99.90;;;;;;4919174;29;20484;-84
2022/03/21 04:07:52;;;;;;;33.97;16.70;;;3.40;99.90;;;;;;4902328;29;20047;-84
2022/03/21 04:10:18;;;;;;;38.57;17.53;;;3.30;99.90;;;;;;4901506;29;20135;-85
2022/03/21 04:12:44;;;;;;;38.73;16.77;;;3.40;99.90;;;;;;4919207;29;20056;-84
2022/03/21 04:15:10;;;;;;;43.37;16.70;;;3.20;99.90;;;;;;4902456;29;20079;-84
2022/03/21 04:17:36;;;;;;;34.53;16.47;;;3.10;99.90;;;;;;4901533;29;20104;-84
2022/03/21 04:20:03;;;;;;;34.60;15.77;;;3.00;99.90;;;;;;4919392;29;20433;-84
2022/03/21 04:22:28;;;;;;;35.90;16.37;;;3.00;99.90;;;;;;4919018;29;20469;-84
2022/03/21 04:24:54;;;;;;;38.90;17.33;;;2.90;99.90;;;;;;4918435;29;20095;-84
2022/03/21 04:27:20;;;;;;;41.27;17.50;;;2.80;99.90;;;;;;4901606;29;20047;-84
2022/03/21 04:29:45;;;;;;;40.27;17.93;;;2.80;99.90;;;;;;4902078;29;20044;-84
2022/03/21 04:32:11;;;;;;;35.57;17.33;;;2.80;99.90;;;;;;4901182;29;20048;-85
2022/03/21 04:34:36;;;;;;;39.13;16.80;;;2.80;99.90;;;;;;4919036;29;20056;-84
2022/03/21 04:37:02;;;;;;;40.57;17.67;;;2.80;99.90;;;;;;4919172;29;20044;-84
2022/03/21 04:39:28;;;;;;;44.47;17.13;;;2.80;99.90;;;;;;4917871;29;20102;-84
2022/03/21 04:41:54;;;;;;;43.63;18.13;;;2.70;99.90;;;;;;4919023;29;20395;-84
2022/03/21 04:44:19;;;;;;;41.37;16.97;;;2.60;99.90;;;;;;4901445;29;20085;-84
2022/03/21 04:46:45;;;;;;;39.13;17.30;;;2.70;99.90;;;;;;4900763;29;20048;-84
2022/03/21 04:49:10;;;;;;;36.53;16.80;;;2.50;99.90;;;;;;4901744;29;20066;-84
2022/03/21 04:51:36;;;;;;;38.20;16.93;;;2.50;99.90;;;;;;4918320;29;20050;-84
2022/03/21 04:54:02;;;;;;;40.83;16.47;;;2.30;99.90;;;;;;4918572;29;20410;-85
2022/03/21 04:56:27;;;;;;;41.93;17.83;;;2.30;99.90;;;;;;4918573;29;20051;-84
2022/03/21 04:58:53;;;;;;;37.97;15.77;;;2.20;99.90;;;;;;4900910;29;20076;-84
2022/03/21 05:01:19;;;;;;;37.13;17.07;;;2.20;99.90;;;;;;4894380;29;20096;-84
2022/03/21 05:03:44;;;;;;;39.47;16.67;;;2.10;99.90;;;;;;4917118;29;20055;-84
2022/03/21 05:06:12;;;;;;;35.90;16.10;;;2.10;99.90;;;;;;4916963;29;20040;-85
2022/03/21 05:08:37;;;;;;;38.97;15.73;;;2.00;99.90;;;;;;4901030;29;20059;-84
2022/03/21 05:11:03;;;;;;;40.03;17.40;;;2.00;99.90;;;;;;4901395;29;20083;-84
2022/03/21 05:13:29;;;;;;;42.80;16.93;;;2.00;99.90;;;;;;4917016;29;20056;-85
2022/03/21 05:15:54;;;;;;;43.93;17.57;;;1.90;99.90;;;;;;4918255;29;20103;-84
2022/03/21 05:18:21;;;;;;;45.47;18.40;;;2.00;99.90;;;;;;4918020;29;20452;-84
2022/03/21 05:20:47;;;;;;;44.37;17.43;;;1.90;99.90;;;;;;4900272;29;20131;-84
2022/03/21 05:31:26;;;;;;;52.10;18.33;;;1.70;99.90;;;;;;4900519;29;20052;-84
2022/03/21 05:36:35;;;;;;;42.10;17.45;;;1.70;99.90;;;;;;4917736;29;20419;-84
2022/03/21 05:39:01;;;;;;;42.53;17.97;;;1.70;99.90;;;;;;4900424;29;20044;-84
2022/03/21 05:41:27;;;;;;;46.40;17.50;;;1.60;99.90;;;;;;4916511;29;20058;-84
2022/03/21 05:43:53;;;;;;;38.77;17.53;;;1.70;99.90;;;;;;4900579;29;20044;-83
2022/03/21 05:46:19;;;;;;;41.73;17.43;;;1.60;99.90;;;;;;4917484;29;20040;-84
2022/03/21 05:48:51;;;;;;;46.30;17.53;;;1.60;99.90;;;;;;4917026;29;20044;-84
2022/03/21 05:51:22;;;;;;;44.97;16.70;;;1.60;99.90;;;;;;4917542;29;20102;-84
2022/03/21 05:53:49;;;;;;;41.43;17.77;;;1.50;99.90;;;;;;4917557;29;20048;-84
2022/03/21 05:56:15;;;;;;;47.17;17.80;;;1.50;99.90;;;;;;4899472;29;20050;-85
2022/03/21 05:58:41;;;;;;;42.63;17.57;;;1.40;99.90;;;;;;4900456;29;20131;-85
2022/03/21 06:01:07;;;;;;;43.57;18.67;;;1.40;99.90;;;;;;4917568;29;20048;-85
2022/03/21 06:03:33;;;;;;;45.37;19.17;;;1.50;99.90;;;;;;4916325;29;20106;-84
2022/03/21 06:06:00;;;;;;;45.50;19.67;;;1.50;99.90;;;;;;4900279;29;20083;-84
2022/03/21 06:08:26;;;;;;;46.20;19.73;;;1.60;99.90;;;;;;4917075;29;20044;-84
2022/03/21 06:11:03;;;;;;;53.90;19.73;;;1.60;99.90;;;;;;4900100;29;20106;-85
2022/03/21 06:13:33;;;;;;;49.20;20.07;;;1.60;99.90;;;;;;4917993;29;20060;-85
2022/03/21 06:16:03;;;;;;;53.80;21.77;;;1.60;99.90;;;;;;4901244;29;20146;-85
2022/03/21 06:18:35;;;;;;;51.73;20.00;;;1.60;99.90;;;;;;4916773;29;20048;-84
2022/03/21 06:21:02;;;;;;;46.20;19.57;;;1.60;99.90;;;;;;4900361;29;20083;-84
2022/03/21 06:23:29;;;;;;;55.03;21.00;;;1.70;99.90;;;;;;4916170;29;20051;-84
2022/03/21 06:25:55;;;;;;;55.60;20.33;;;1.80;99.90;;;;;;4916812;29;20623;-84
2022/03/21 06:28:25;;;;;;;57.37;22.70;;;1.80;99.90;;;;;;4916735;29;20055;-84
2022/03/21 06:30:51;;;;;;;56.80;22.43;;;1.80;99.90;;;;;;4899144;29;20052;-84
2022/03/21 06:33:23;;;;;;;62.83;24.00;;;1.90;99.90;;;;;;4899439;29;20052;-84
2022/03/21 06:35:49;;;;;;;55.20;23.03;;;1.90;99.90;;;;;;4916899;29;20048;-84
2022/03/21 06:38:15;;;;;;;66.27;26.50;;;2.00;99.90;;;;;;4915524;29;20131;-84
2022/03/21 06:40:42;;;;;;;74.50;25.90;;;2.00;99.90;;;;;;4916613;29;20052;-84
2022/03/21 06:43:08;;;;;;;69.37;25.73;;;2.10;99.90;;;;;;4917047;29;20044;-84
2022/03/21 06:45:35;;;;;;;64.83;25.13;;;2.20;99.90;;;;;;4915521;29;20100;-84
2022/03/21 06:48:00;;;;;;;71.83;26.40;;;2.30;99.90;;;;;;4899376;29;20136;-84
2022/03/21 06:50:26;;;;;;;66.77;27.73;;;2.40;99.90;;;;;;4916181;29;20130;-84
2022/03/21 06:52:52;;;;;;;75.57;27.77;;;2.60;99.90;;;;;;4915639;29;20044;-84
2022/03/21 06:55:19;;;;;;;69.53;29.30;;;2.60;99.90;;;;;;4899615;29;20048;-90
2022/03/21 06:57:45;;;;;;;66.33;27.33;;;2.60;99.90;;;;;;4900707;29;20096;-92
2022/03/21 07:00:13;;;;;;;67.67;27.20;;;2.60;99.90;;;;;;4898474;29;20055;-90
2022/03/21 07:02:51;;;;;;;66.43;28.33;;;2.80;99.90;;;;;;4916995;29;20106;-89
2022/03/21 07:05:17;;;;;;;71.63;29.23;;;2.70;99.90;;;;;;4915773;29;20048;-88
2022/03/21 07:07:47;;;;;;;76.40;30.40;;;3.10;99.90;;;;;;4899156;29;20100;-90
2022/03/21 07:10:34;;;;;;;75.27;29.97;;;3.60;99.90;;;;;;4899359;29;20060;-87
2022/03/21 07:13:04;;;;;;;65.20;29.93;;;3.60;99.90;;;;;;4897808;29;20131;-87
2022/03/21 07:16:20;;;;;;;66.87;29.87;;;3.20;99.90;;;;;;4916368;29;20051;-87
2022/03/21 07:18:48;;;;;;;70.80;31.43;;;3.60;99.90;;;;;;4916023;29;20056;-87
2022/03/21 07:21:22;;;;;;;68.17;30.00;;;3.50;99.90;;;;;;4915865;29;20099;-88
2022/03/21 07:23:56;;;;;;;69.93;30.33;;;4.00;99.90;;;;;;4917628;29;20045;-90
2022/03/21 07:26:28;;;;;;;63.90;30.70;;;3.90;99.90;;;;;;4896814;29;20083;-90
2022/03/21 07:28:54;;;;;;;68.60;32.73;;;5.70;99.90;;;;;;4918691;29;20044;-90
2022/03/21 07:31:20;;;;;;;69.23;31.87;;;4.10;99.90;;;;;;4919727;29;20099;-90
2022/03/21 07:33:58;;;;;;;60.07;28.20;;;4.10;99.90;;;;;;4918966;29;20068;-90
2022/03/21 07:36:34;;;;;;;62.23;29.83;;;4.20;99.90;;;;;;4902988;29;20067;-89
2022/03/21 07:39:00;;;;;;;65.57;30.37;;;4.30;99.90;;;;;;4902706;29;20047;-89
2022/03/21 07:41:28;;;;;;;61.27;31.17;;;4.50;99.90;;;;;;4918667;29;20107;-89
2022/03/21 07:43:58;;;;;;;56.60;27.47;;;4.60;99.90;;;;;;4902545;29;20051;-89
2022/03/21 07:49:35;;;;;;;54.20;24.93;;;5.10;99.90;;;;;;4902469;29;20054;-90
2022/03/21 07:52:14;;;;;;;51.37;25.13;;;4.80;99.90;;;;;;4902894;29;20048;-89
2022/03/21 07:54:53;;;;;;;45.93;23.97;;;5.10;99.90;;;;;;4919123;29;20048;-90
2022/03/21 07:57:21;;;;;;;45.20;23.73;;;6.30;99.90;;;;;;4919621;29;20441;-90
2022/03/21 07:59:53;;;;;;;43.60;22.50;;;5.30;99.90;;;;;;4902870;29;20040;-89
2022/03/21 08:02:28;;;;;;;39.60;21.07;;;5.90;99.90;;;;;;4907586;29;20036;-90
2022/03/21 08:04:53;;;;;;;38.53;21.23;;;5.50;99.90;;;;;;4940780;29;20036;-89
2022/03/21 08:07:25;;;;;;;38.63;19.70;;;5.70;99.90;;;;;;4906677;29;20448;-91
2022/03/21 08:09:51;;;;;;;31.23;17.27;;;6.40;99.90;;;;;;4905608;29;20096;-90
2022/03/21 08:12:23;;;;;;;35.73;18.47;;;5.90;99.90;;;;;;4901705;29;20048;-90
2022/03/21 08:15:17;;;;;;;33.03;17.50;;;6.00;99.90;;;;;;4880875;29;20063;-87
2022/03/21 08:18:01;;;;;;;31.25;16.30;;;6.20;99.90;;;;;;4881037;29;20056;-88
2022/03/21 08:20:53;;;;;;;35.83;18.75;;;6.50;99.90;;;;;;4883712;29;20044;-91
2022/03/21 08:23:34;;;;;;;31.97;16.93;;;6.50;99.90;;;;;;4866494;29;20053;-90
2022/03/21 08:26:06;;;;;;;32.63;16.23;;;7.70;99.90;;;;;;4900138;29;20048;-91
2022/03/21 08:28:40;;;;;;;29.57;15.63;;;6.60;99.90;;;;;;4915051;23;20055;-90
2022/03/21 08:31:06;;;;;;;26.20;15.33;;;6.80;99.90;;;;;;4904397;29;20068;-87
2022/03/21 08:33:47;;;;;;;26.50;15.60;;;7.00;99.90;;;;;;4899967;29;20044;-86
2022/03/21 08:36:21;;;;;;;27.67;14.73;;;7.00;99.90;;;;;;4899399;29;20051;-88
2022/03/21 08:38:52;;;;;;;27.67;16.07;;;7.50;99.90;;;;;;4899398;29;20041;-90
2022/03/21 08:41:27;;;;;;;27.00;15.23;;;8.50;99.90;;;;;;4882765;29;20044;-90
2022/03/21 08:44:05;;;;;;;27.30;14.33;;;7.30;99.90;;;;;;4882283;29;20492;-91
2022/03/21 08:46:40;;;;;;;28.27;14.53;;;7.60;99.90;;;;;;4882976;29;20124;-88
2022/03/21 08:49:26;;;;;;;25.37;15.10;;;7.60;99.90;;;;;;4899897;29;20049;-89
2022/03/21 08:51:52;;;;;;;28.90;14.33;;;7.60;99.90;;;;;;4882494;29;20063;-89
2022/03/21 08:54:17;;;;;;;27.40;15.37;;;7.80;99.90;;;;;;4899591;29;20049;-89
2022/03/21 08:56:43;;;;;;;26.00;15.10;;;7.90;99.90;;;;;;4899838;29;20053;-89
2022/03/21 08:59:24;;;;;;;27.20;14.70;;;9.30;99.90;;;;;;4898474;29;20047;-89
2022/03/21 09:01:51;;;;;;;33.17;15.03;;;7.90;99.90;;;;;;4882928;29;20048;-90
2022/03/21 09:04:23;;;;;;;23.27;14.17;;;8.60;99.90;;;;;;4912415;29;20127;-89
2022/03/21 09:06:49;;;;;;;28.07;14.70;;;9.00;99.90;;;;;;4918253;29;20047;-90
2022/03/21 09:09:18;;;;;;;26.57;14.70;;;8.20;99.90;;;;;;4901406;29;20059;-89
2022/03/21 09:11:44;;;;;;;26.53;14.63;;;8.50;99.90;;;;;;4901608;29;20079;-90
2022/03/21 09:14:22;;;;;;;25.37;15.47;;;8.50;99.90;;;;;;4912909;29;20108;-89
2022/03/21 09:17:01;;;;;;;25.40;14.63;;;8.60;99.90;;;;;;4900823;29;20051;-90
2022/03/21 09:19:29;;;;;;;26.30;15.47;;;8.60;99.90;;;;;;4900015;29;20083;-89
2022/03/21 09:22:00;;;;;;;26.43;15.00;;;9.00;99.90;;;;;;4918365;29;20131;-89
2022/03/21 09:24:26;;;;;;;28.52;16.23;;;8.90;99.90;;;;;;4900866;29;20076;-89
2022/03/21 09:27:01;;;;;;;24.77;15.20;;;9.10;99.90;;;;;;4900623;29;20083;-89
2022/03/21 09:29:39;;;;;;;27.48;16.27;;;9.40;99.90;;;;;;4901381;29;20060;-89
2022/03/21 09:32:17;;;;;;;30.63;16.42;;;9.00;99.90;;;;;;4901625;29;20055;-89
2022/03/21 09:34:55;;;;;;;25.90;15.43;;;9.20;99.90;;;;;;4900419;29;20062;-90
2022/03/21 09:37:20;;;;;;;30.25;16.48;;;9.30;99.90;;;;;;4897953;29;20037;-89
2022/03/21 09:39:52;;;;;;;27.92;16.50;;;9.40;99.90;;;;;;4899488;29;20055;-89
2022/03/21 09:42:20;;;;;;;29.98;17.90;;;9.70;99.90;;;;;;4898937;29;20108;-89
2022/03/21 09:44:53;;;;;;;29.98;17.80;;;9.80;99.90;;;;;;4916829;29;20063;-90
2022/03/21 09:50:09;;;;;;;30.08;17.35;;;10.00;99.90;;;;;;4917989;29;20540;-90
2022/03/21 09:52:35;;;;;;;29.55;17.85;;;10.10;99.90;;;;;;4917343;29;20122;-91
2022/03/21 09:55:02;;;;;;;28.17;17.52;;;10.30;99.90;;;;;;4904308;29;20086;-90
2022/03/21 09:57:35;;;;;;;29.15;17.48;;;10.30;99.90;;;;;;4901657;29;20052;-90
2022/03/21 10:00:01;;;;;;;27.95;17.08;;;10.30;99.90;;;;;;4900571;29;20480;-92
2022/03/21 10:02:27;;;;;;;28.55;16.95;;;10.30;99.90;;;;;;4919436;29;20052;-93
2022/03/21 10:04:54;;;;;;;29.17;16.35;;;10.60;99.90;;;;;;4905236;29;20103;-93
2022/03/21 10:07:27;;;;;;;26.58;16.77;;;11.80;99.90;;;;;;4902480;29;20092;-92
2022/03/21 10:10:15;;;;;;;31.25;18.10;;;10.70;99.90;;;;;;4892951;29;20048;-91
2022/03/21 10:12:40;;;;;;;29.80;18.63;;;11.40;99.90;;;;;;4907835;29;20464;-91
2022/03/21 10:15:17;;;;;;;28.48;17.85;;;11.60;99.90;;;;;;4885914;29;20556;-91
2022/03/21 10:18:08;;;;;;;28.85;17.98;;;11.20;99.90;;;;;;4887774;29;20052;-91
2022/03/21 10:20:39;;;;;;;29.05;17.05;;;11.30;99.90;;;;;;4886053;29;20056;-91
2022/03/21 10:23:22;;;;;;;29.02;18.20;;;12.20;99.90;;;;;;4913036;29;20100;-95
2022/03/21 10:26:01;;;;;;;28.65;18.17;;;11.60;99.90;;;;;;4916425;29;20056;-90
2022/03/21 10:28:50;;;;;;;30.58;18.98;;;11.90;99.90;;;;;;4900172;29;20052;-90
2022/03/21 10:31:42;;;;;;;34.22;19.35;;;11.90;99.90;;;;;;4899112;29;20063;-90
2022/03/21 10:34:13;;;;;;;29.85;18.85;;;13.20;99.90;;;;;;4902563;23;20052;-90
2022/03/21 10:36:58;;;;;;;32.40;19.05;;;12.40;99.90;;;;;;4880446;29;20084;-90
2022/03/21 10:39:24;;;;;;;34.10;20.25;;;12.50;99.90;;;;;;4881118;29;20053;-90
2022/03/21 10:42:07;;;;;;;31.80;19.05;;;12.80;99.90;;;;;;4880953;29;20051;-90
2022/03/21 10:44:37;;;;;;;28.45;18.05;;;12.90;99.90;;;;;;4896981;29;20052;-90
2022/03/21 10:47:06;;;;;;;32.42;18.67;;;13.00;99.90;;;;;;4898467;29;20052;-89
2022/03/21 10:49:34;;;;;;;29.90;18.63;;;13.10;99.90;;;;;;4897782;29;20550;-90
2022/03/21 10:52:01;;;;;;;31.95;18.90;;;13.20;99.90;;;;;;4880716;29;20174;-90
2022/03/21 10:54:36;;;;;;;26.50;17.63;;;13.60;99.90;;;;;;4897672;29;20049;-90
2022/03/21 10:57:03;;;;;;;30.02;18.63;;;13.60;99.90;;;;;;4897771;29;20048;-91
2022/03/21 10:59:32;;;;;;;30.40;18.42;;;13.90;99.90;;;;;;4880023;29;20049;-89
2022/03/21 11:02:17;;;;;;;28.65;17.80;;;14.10;99.90;;;;;;4889235;29;20389;-90
2022/03/21 11:04:44;;;;;;;28.08;17.80;;;14.10;99.90;;;;;;4872077;29;20567;-93
2022/03/21 11:07:11;;;;;;;28.17;17.35;;;14.20;99.90;;;;;;4880832;29;20055;-93
2022/03/21 11:09:41;;;;;;;27.58;17.75;;;14.30;99.90;;;;;;4900714;29;20115;-91
2022/03/21 11:12:09;;;;;;;27.67;17.85;;;14.30;99.90;;;;;;4898408;29;20040;-91
2022/03/21 11:14:39;;;;;;;27.70;17.67;;;14.50;99.90;;;;;;4917926;29;20052;-91
2022/03/21 11:17:07;;;;;;;28.38;17.63;;;15.40;99.90;;;;;;4883035;29;20052;-93
2022/03/21 11:19:58;;;;;;;28.40;17.58;;;14.80;99.90;;;;;;4898560;29;20049;-93
2022/03/21 11:22:37;;;;;;;26.25;17.20;;;13.50;99.90;;;;;;4898097;29;20080;-94
2022/03/21 11:25:49;;;;;;;28.25;18.10;;;16.00;99.90;;;;;;4898180;29;20045;-91
2022/03/21 11:28:32;;;;;;;27.13;17.42;;;15.10;99.90;;;;;;4803403;29;20055;-92
2022/03/21 11:31:14;;;;;;;28.15;18.08;;;15.10;99.90;;;;;;4810364;29;20053;-90
2022/03/21 11:34:21;;;;;;;28.73;18.67;;;15.20;99.90;;;;;;4897677;29;20044;-94
2022/03/21 11:36:55;;;;;;;25.95;17.42;;;15.10;99.90;;;;;;4899183;29;20056;-96
2022/03/21 11:39:22;;;;;;;28.33;17.70;;;15.20;99.90;;;;;;4899808;29;20056;-93
2022/03/21 11:42:10;;;;;;;28.20;18.10;;;15.20;99.90;;;;;;4881022;29;20051;-90
2022/03/21 11:44:37;;;;;;;27.38;18.15;;;15.10;99.90;;;;;;4894962;29;20103;-88
2022/03/21 11:47:28;;;;;;;26.10;17.73;;;15.20;99.90;;;;;;4881024;29;20506;-93
2022/03/21 11:49:55;;;;;;;27.10;17.70;;;15.30;99.90;;;;;;4872962;29;20056;-93
2022/03/21 11:52:22;;;;;;;29.65;17.80;;;15.20;99.90;;;;;;4897234;29;20100;-89
2022/03/21 11:54:48;;;;;;;27.80;17.52;;;15.30;99.90;;;;;;4881806;29;20049;-89
2022/03/21 11:57:27;;;;;;;27.02;18.27;;;16.00;99.90;;;;;;4880786;29;20128;-96
2022/03/21 11:59:56;;;;;;;28.98;18.58;;;15.50;99.90;;;;;;4883913;29;20404;-96
2022/03/21 12:02:22;;;;;;;31.30;20.92;;;15.70;99.90;;;;;;4908964;29;20055;-90
2022/03/21 12:05:06;;;;;;;29.52;19.42;;;15.80;99.90;;;;;;4898715;29;20084;-93
2022/03/21 12:07:34;;;;;;;25.25;17.35;;;15.90;99.90;;;;;;4889118;29;20500;-96
2022/03/21 12:10:03;;;;;;;26.98;17.35;;;15.90;99.90;;;;;;4903118;29;20104;-92
2022/03/21 12:12:40;;;;;;;28.92;18.20;;;16.00;99.90;;;;;;4886921;29;20440;-92
2022/03/21 12:15:33;;;;;;;25.73;18.67;;;16.00;99.90;;;;;;4885559;29;20048;-93
2022/03/21 12:17:58;;;;;;;30.15;20.20;;;16.70;99.90;;;;;;4884657;29;20100;-92
2022/03/21 12:21:03;;;;;;;26.50;19.67;;;16.20;99.90;;;;;;4889784;29;20049;-96
2022/03/21 12:29:59;;;;;;;28.48;19.58;;;16.40;99.90;;;;;;5018619;23;20059;-96
2022/03/21 12:32:29;;;;;;;26.67;19.00;;;16.30;99.90;;;;;;4878234;29;20052;-96
2022/03/21 12:34:57;;;;;;;25.23;18.77;;;16.40;99.90;;;;;;4920054;29;20431;-96
2022/03/21 12:37:39;;;;;;;26.60;18.48;;;16.30;99.90;;;;;;4917542;23;20141;-95
2022/03/21 12:40:13;;;;;;;25.45;18.77;;;16.50;99.90;;;;;;4913688;23;20056;-95
2022/03/21 12:43:01;;;;;;;;;;;16.60;99.90;;;;;;4928704;29;20519;-96
2022/03/21 12:45:31;;;;;;;27.77;19.58;;;16.60;99.90;;;;;;4927220;29;19923;-91
2022/03/21 12:48:10;;;;;;;27.05;18.63;;;16.70;99.90;;;;;;4920222;29;20047;-94
2022/03/21 12:50:58;;;;;;;27.58;19.30;;;16.20;99.90;;;;;;4921098;29;20047;-94
2022/03/21 12:53:43;;;;;;;28.70;19.15;;;17.50;99.90;;;;;;4856938;29;20052;-95
2022/03/21 12:56:46;;;;;;;26.30;19.10;;;16.60;99.90;;;;;;4899822;29;20053;-95
2022/03/21 12:59:40;;;;;;;28.17;18.88;;;15.60;99.90;;;;;;4898008;23;20131;-94
2022/03/21 13:12:14;;;;;;;31.30;19.30;;;18.00;99.90;;;;;;4900002;29;20560;-95
2022/03/21 13:35:20;;;;;;;28.20;19.48;;;17.40;99.90;;;;;;4999575;23;20048;-88
2022/03/21 13:40:54;;;;;;;25.20;19.70;;;17.50;99.90;;;;;;4879979;29;20057;-93
2022/03/21 13:43:36;;;;;;;;;;;;;;;;;;;;;
2022/03/21 14:31:21;;;;;;;29.35;21.25;;;18.20;99.90;;;;;;4946876;23;20070;-95
2022/03/21 14:33:58;;;;;;;28.90;21.42;;;19.20;99.90;;;;;;4904642;29;20060;-96
2022/03/21 14:36:30;;;;;;;29.13;21.73;;;18.30;99.90;;;;;;4922304;29;20055;-96
2022/03/21 14:38:58;;;;;;;29.90;22.48;;;17.00;99.90;;;;;;4907037;29;20052;-96
2022/03/21 14:44:24;;;;;;;29.00;21.52;;;18.30;99.90;;;;;;4936373;23;20044;-95